createdAt,value
2023-11-11T00:00:47.691Z,99869.31
2023-11-11T00:03:52.255Z,99874.78
2023-11-11T00:06:55.399Z,99871.28
2023-11-11T00:09:58.428Z,99873.94
2023-11-11T00:13:01.371Z,99869.31
2023-11-11T00:16:06.572Z,99869.81
2023-11-11T00:19:10.853Z,99875.03
2023-11-11T00:22:14.149Z,99875.13
2023-11-11T00:25:17.950Z,99865.38
2023-11-11T00:28:20.840Z,99875.03
2023-11-11T00:31:25.269Z,99857.41
2023-11-11T00:34:29.256Z,99849.78
2023-11-11T00:37:32.059Z,99847.00
2023-11-11T00:40:34.982Z,99852.31
2023-11-11T00:43:37.887Z,99843.38
2023-11-11T00:46:42.688Z,99834.81
2023-11-11T00:49:45.718Z,99838.31
2023-11-11T00:52:48.569Z,99846.41
2023-11-11T00:55:51.675Z,99837.59
2023-11-11T00:58:54.525Z,99830.47
2023-11-11T01:02:00.653Z,99829.72
2023-11-11T01:05:03.521Z,99827.91
2023-11-11T01:08:06.722Z,99827.69
2023-11-11T01:11:10.713Z,99831.66
2023-11-11T01:14:13.687Z,99826.84
2023-11-11T01:17:20.184Z,99820.06
2023-11-11T01:20:23.242Z,99817.28
2023-11-11T01:23:26.138Z,99809.31
2023-11-11T01:26:29.148Z,99802.31
2023-11-11T01:29:32.333Z,99800.75
2023-11-11T01:32:36.719Z,99793.50
2023-11-11T01:35:39.610Z,99788.44
2023-11-11T01:38:42.534Z,99793.75
2023-11-11T01:41:45.362Z,99792.06
2023-11-11T01:44:48.396Z,99788.69
2023-11-11T01:47:52.727Z,99783.38
2023-11-11T01:50:55.725Z,99779.28
2023-11-11T01:53:58.826Z,99777.59
2023-11-11T01:57:05.718Z,99779.28
2023-11-11T02:00:14.098Z,99783.00
2023-11-11T02:03:18.881Z,99773.97
2023-11-11T02:06:22.280Z,99783.84
2023-11-11T02:09:25.402Z,99782.91
2023-11-11T02:12:28.969Z,99782.16
2023-11-11T02:15:31.988Z,99773.13
2023-11-11T02:18:36.437Z,99777.69
2023-11-11T02:21:40.071Z,99771.53
2023-11-11T02:24:44.407Z,99757.53
2023-11-11T02:27:48.353Z,99753.06
2023-11-11T02:30:51.325Z,99745.47
2023-11-11T02:33:54.276Z,99735.69
2023-11-11T02:37:01.277Z,99733.03
2023-11-11T02:40:09.160Z,99732.31
2023-11-11T02:43:12.863Z,99734.00
2023-11-11T02:46:17.297Z,99729.66
2023-11-11T02:49:20.863Z,99721.13
2023-11-11T02:52:23.731Z,99719.88
2023-11-11T02:55:28.676Z,99727.84
2023-11-11T02:58:31.582Z,99711.19
2023-11-11T03:01:36.270Z,99713.16
2023-11-11T03:04:39.619Z,99716.84
2023-11-11T03:07:42.500Z,99707.84
2023-11-11T03:10:46.855Z,99710.34
2023-11-11T03:13:50.046Z,99688.41
2023-11-11T03:16:53.043Z,99689.25
2023-11-11T03:19:56.151Z,99688.72
2023-11-11T03:22:59.288Z,99683.41
2023-11-11T03:26:04.094Z,99674.34
2023-11-11T03:29:07.694Z,99673.63
2023-11-11T03:32:10.548Z,99673.78
2023-11-11T03:35:13.696Z,99674.47
2023-11-11T03:38:16.601Z,99671.34
2023-11-11T03:41:20.876Z,99676.44
2023-11-11T03:44:23.759Z,99666.50
2023-11-11T03:47:26.628Z,99668.47
2023-11-11T03:50:29.507Z,99664.00
2023-11-11T03:53:32.394Z,99668.47
2023-11-11T03:56:36.621Z,99665.31
2023-11-11T03:59:40.532Z,99661.69
2023-11-11T04:02:43.404Z,99657.34
2023-11-11T04:05:47.713Z,99664.47
2023-11-11T04:08:50.638Z,99652.41
2023-11-11T04:11:54.971Z,99649.66
2023-11-11T04:14:57.863Z,99648.69
2023-11-11T04:18:00.729Z,99650.09
2023-11-11T04:21:03.776Z,99642.53
2023-11-11T04:24:07.203Z,99642.63
2023-11-11T04:27:11.520Z,99647.22
2023-11-11T04:30:14.546Z,99650.84
2023-11-11T04:33:17.746Z,99642.06
2023-11-11T04:36:20.788Z,99645.41
2023-11-11T04:39:23.727Z,99636.59
2023-11-11T04:42:28.397Z,99639.75
2023-11-11T04:45:31.904Z,99648.47
2023-11-11T04:48:34.846Z,99638.69
2023-11-11T04:51:37.742Z,99631.06
2023-11-11T04:54:42.302Z,99631.78
2023-11-11T04:57:46.785Z,99623.13
2023-11-11T05:00:49.781Z,99611.66
2023-11-11T05:03:54.448Z,99603.69
2023-11-11T05:06:57.387Z,99608.88
2023-11-11T05:10:00.544Z,99609.13
2023-11-11T05:13:09.594Z,99617.81
2023-11-11T05:16:25.824Z,99606.47
2023-11-11T05:19:29.345Z,99604.66
2023-11-11T05:22:32.213Z,99595.13
2023-11-11T05:25:35.100Z,99588.00
2023-11-11T05:28:39.347Z,99587.41
2023-11-11T05:31:42.252Z,99579.19
2023-11-11T05:34:46.363Z,99585.47
2023-11-11T05:37:49.714Z,99585.34
2023-11-11T05:40:52.617Z,99590.56
2023-11-11T05:43:56.892Z,99590.91
2023-11-11T05:46:59.796Z,99584.63
2023-11-11T05:50:03.686Z,99597.06
2023-11-11T05:53:06.534Z,99597.19
2023-11-11T05:56:10.466Z,99600.81
2023-11-11T05:59:14.794Z,99610.47
2023-11-11T06:02:18.692Z,99613.00
2023-11-11T06:05:22.880Z,99614.81
2023-11-11T06:08:25.816Z,99606.13
2023-11-11T06:11:30.711Z,99594.66
2023-11-11T06:14:35.249Z,99603.22
2023-11-11T06:17:38.226Z,99604.06
2023-11-11T06:20:41.122Z,99604.06
2023-11-11T06:23:45.815Z,99610.47
2023-11-11T06:26:50.177Z,99589.38
2023-11-11T06:29:54.455Z,99586.72
2023-11-11T06:32:57.758Z,99585.97
2023-11-11T06:36:01.390Z,99594.66
2023-11-11T06:39:04.917Z,99576.19
2023-11-11T06:42:07.815Z,99565.56
2023-11-11T06:45:16.220Z,99556.53
2023-11-11T06:48:19.258Z,99562.09
2023-11-11T06:51:22.250Z,99549.66
2023-11-11T06:54:25.087Z,99547.75
2023-11-11T06:57:28.015Z,99541.59
2023-11-11T07:00:33.221Z,99549.91
2023-11-11T07:03:36.897Z,99540.63
2023-11-11T07:06:39.880Z,99523.13
2023-11-11T07:09:44.092Z,99523.00
2023-11-11T07:12:47.165Z,99508.06
2023-11-11T07:15:52.002Z,99503.59
2023-11-11T07:18:56.102Z,99499.84
2023-11-11T07:25:06.447Z,99489.22
2023-11-11T07:28:09.375Z,99489.59
2023-11-11T07:31:13.704Z,99489.00
2023-11-11T07:34:17.894Z,99486.94
2023-11-11T07:37:20.865Z,99470.31
2023-11-11T07:40:26.535Z,99460.66
2023-11-11T07:43:30.608Z,99458.00
2023-11-11T07:46:35.421Z,99451.88
2023-11-11T07:49:39.332Z,99430.63
2023-11-11T07:52:42.311Z,99427.84
2023-11-11T07:55:45.429Z,99414.72
2023-11-11T07:58:52.336Z,99417.22
2023-11-11T08:01:56.975Z,99408.56
2023-11-11T08:04:59.883Z,99406.88
2023-11-11T08:11:10.054Z,99418.19
2023-11-11T08:14:13.695Z,99407.00
2023-11-11T08:17:18.800Z,99396.97
2023-11-11T08:20:22.319Z,99389.16
2023-11-11T08:23:25.507Z,99380.91
2023-11-11T08:26:28.704Z,99363.59
2023-11-11T08:29:32.578Z,99361.63
2023-11-11T08:32:38.035Z,99361.63
2023-11-11T08:35:40.894Z,99350.31
2023-11-11T08:38:45.852Z,99341.38
2023-11-11T08:41:50.846Z,99351.16
2023-11-11T08:44:58.863Z,99338.84
2023-11-11T08:48:03.212Z,99324.72
2023-11-11T08:51:06.343Z,99312.19
2023-11-11T08:54:09.561Z,99300.16
2023-11-11T08:57:14.117Z,99301.59
2023-11-11T09:00:17.286Z,99296.28
2023-11-11T09:03:21.744Z,99295.44
2023-11-11T09:06:24.676Z,99287.03
2023-11-11T09:09:28.159Z,99286.75
2023-11-11T09:12:31.121Z,99265.50
2023-11-11T09:15:34.730Z,99261.31
2023-11-11T09:18:39.165Z,99247.69
2023-11-11T09:21:42.140Z,99245.41
2023-11-11T09:24:45.089Z,99244.56
2023-11-11T09:27:48.011Z,99234.66
2023-11-11T09:30:51.053Z,99228.78
2023-11-11T09:34:01.469Z,99216.91
2023-11-11T09:37:04.552Z,99202.94
2023-11-11T09:40:10.749Z,99196.81
2023-11-11T09:43:13.649Z,99181.88
2023-11-11T09:46:17.446Z,99170.84
2023-11-11T09:49:21.949Z,99163.28
2023-11-11T09:52:25.511Z,99165.81
2023-11-11T09:55:30.302Z,99155.34
2023-11-11T09:58:34.035Z,99152.78
2023-11-11T10:01:37.173Z,99152.78
2023-11-11T10:04:42.074Z,99146.66
2023-11-11T10:07:45.023Z,99138.84
2023-11-11T10:10:49.724Z,99136.75
2023-11-11T10:13:55.319Z,99129.91
2023-11-11T10:17:00.861Z,99134.38
2023-11-11T10:20:09.633Z,99120.00
2023-11-11T10:23:17.003Z,99105.03
2023-11-11T10:26:21.344Z,99101.44
2023-11-11T10:29:24.213Z,99100.47
2023-11-11T10:32:28.855Z,99092.06
2023-11-11T10:35:33.243Z,99098.06
2023-11-11T10:38:36.100Z,99087.44
2023-11-11T10:41:39.121Z,99071.13
2023-11-11T10:44:42.068Z,99079.22
2023-11-11T10:47:45.225Z,99076.84
2023-11-11T10:50:49.610Z,99065.38
2023-11-11T10:53:52.672Z,99057.56
2023-11-11T10:56:56.836Z,99066.50
2023-11-11T11:00:00.359Z,99043.03
2023-11-11T11:03:04.087Z,99031.72
2023-11-11T11:06:11.338Z,99050.44
2023-11-11T11:09:24.640Z,99035.38
2023-11-11T11:12:34.365Z,99032.72
2023-11-11T11:15:41.010Z,99033.56
2023-11-11T11:18:44.892Z,99042.63
2023-11-11T11:21:52.539Z,99025.88
2023-11-11T11:24:55.438Z,99034.66
2023-11-11T11:28:13.973Z,99011.63
2023-11-11T11:31:17.299Z,99011.06
2023-11-11T11:34:20.213Z,99011.91
2023-11-11T11:37:25.599Z,99006.72
2023-11-11T11:40:28.900Z,98997.69
2023-11-11T11:43:32.848Z,98989.72
2023-11-11T11:46:35.805Z,98997.78
2023-11-11T11:49:41.081Z,98989.72
2023-11-11T11:52:45.415Z,98970.56
2023-11-11T11:55:48.481Z,98963.19
2023-11-11T11:58:52.482Z,98956.06
2023-11-11T12:01:58.347Z,98957.06
2023-11-11T12:05:05.844Z,98946.56
2023-11-11T12:08:10.272Z,98931.34
2023-11-11T12:11:13.249Z,98932.47
2023-11-11T12:14:18.189Z,98928.72
2023-11-11T12:17:21.862Z,98933.44
2023-11-11T12:20:39.801Z,98914.19
2023-11-11T12:23:44.725Z,98919.47
2023-11-11T12:26:48.699Z,98908.03
2023-11-11T12:29:51.720Z,98909.88
2023-11-11T12:33:05.169Z,98897.41
2023-11-11T12:36:08.577Z,98894.78
2023-11-11T12:39:15.275Z,98881.25
2023-11-11T12:42:19.226Z,98877.44
2023-11-11T12:45:22.526Z,98872.84
2023-11-11T12:48:30.116Z,98868.38
2023-11-11T12:51:33.883Z,98860.56
2023-11-11T12:54:38.149Z,98850.81
2023-11-11T12:57:42.355Z,98851.91
2023-11-11T13:00:51.628Z,98848.16
2023-11-11T13:03:55.266Z,98861.66
2023-11-11T13:06:58.505Z,98853.84
2023-11-11T13:10:03.529Z,98844.22
2023-11-11T13:13:07.460Z,98845.34
2023-11-11T13:16:11.809Z,98843.53
2023-11-11T13:19:16.062Z,98826.66
2023-11-11T13:22:18.934Z,98833.78
2023-11-11T13:25:23.213Z,98821.78
2023-11-11T13:28:26.410Z,98824.13
2023-11-11T13:31:29.409Z,98810.84
2023-11-11T13:34:34.645Z,98807.91
2023-11-11T13:37:38.493Z,98807.66
2023-11-11T13:40:43.862Z,98800.94
2023-11-11T13:43:50.601Z,98794.09
2023-11-11T13:46:53.605Z,98781.75
2023-11-11T13:49:57.169Z,98784.84
2023-11-11T13:53:01.632Z,98786.47
2023-11-11T13:56:07.342Z,98776.53
2023-11-11T13:59:10.707Z,98773.56
2023-11-11T14:05:40.576Z,98752.31
2023-11-11T14:08:43.683Z,98742.50
2023-11-11T14:11:48.032Z,98742.59
2023-11-11T14:14:53.120Z,98738.81
2023-11-11T14:17:56.158Z,98739.88
2023-11-11T14:21:00.708Z,98719.06
2023-11-11T14:24:04.586Z,98724.09
2023-11-11T14:27:09.350Z,98732.22
2023-11-11T14:30:13.985Z,98730.09
2023-11-11T14:33:17.265Z,98729.03
2023-11-11T14:36:20.381Z,98722.88
2023-11-11T14:39:23.385Z,98715.72
2023-11-11T14:42:27.638Z,98712.25
2023-11-11T14:45:32.130Z,98716.72
2023-11-11T14:48:35.062Z,98713.53
2023-11-11T14:51:37.964Z,98713.16
2023-11-11T14:54:40.836Z,98710.63
2023-11-11T14:57:45.808Z,98697.81
2023-11-11T15:00:50.333Z,98695.16
2023-11-11T15:03:54.547Z,98697.13
2023-11-11T15:06:57.517Z,98681.31
2023-11-11T15:10:04.323Z,98682.47
2023-11-11T15:13:17.209Z,98679.16
2023-11-11T15:16:24.983Z,98673.81
2023-11-11T15:19:28.422Z,98672.91
2023-11-11T15:22:31.314Z,98675.34
2023-11-11T15:25:34.733Z,98665.38
2023-11-11T15:28:39.087Z,98659.75
2023-11-11T15:31:42.092Z,98652.78
2023-11-11T15:34:45.308Z,98643.44
2023-11-11T15:37:48.607Z,98639.53
2023-11-11T15:40:51.649Z,98643.00
2023-11-11T15:43:55.964Z,98641.38
2023-11-11T15:46:59.024Z,98630.59
2023-11-11T15:50:02.084Z,98634.13
2023-11-11T15:53:06.678Z,98619.38
2023-11-11T15:56:09.788Z,98610.63
2023-11-11T15:59:14.098Z,98612.13
2023-11-11T16:02:17.717Z,98614.31
2023-11-11T16:05:20.782Z,98611.50
2023-11-11T16:08:23.660Z,98597.88
2023-11-11T16:11:26.645Z,98614.50
2023-11-11T16:14:30.877Z,98590.59
2023-11-11T16:17:33.943Z,98592.44
2023-11-11T16:20:36.817Z,98589.59
2023-11-11T16:23:39.712Z,98574.00
2023-11-11T16:26:47.362Z,98573.56
2023-11-11T16:29:53.512Z,98568.44
2023-11-11T16:32:58.319Z,98547.50
2023-11-11T16:36:01.856Z,98562.41
2023-11-11T16:39:07.527Z,98567.81
2023-11-11T16:42:10.366Z,98560.66
2023-11-11T16:45:14.668Z,98559.22
2023-11-11T16:48:19.200Z,98558.38
2023-11-11T16:51:22.124Z,98557.56
2023-11-11T16:54:25.007Z,98545.06
2023-11-11T16:57:27.896Z,98536.25
2023-11-11T17:00:32.758Z,98523.13
2023-11-11T17:03:38.840Z,98499.63
2023-11-11T17:06:42.338Z,98502.13
2023-11-11T17:09:45.198Z,98506.47
2023-11-11T17:12:48.101Z,98506.81
2023-11-11T17:15:52.325Z,98511.47
2023-11-11T17:18:55.284Z,98490.13
2023-11-11T17:21:58.154Z,98478.47
2023-11-11T17:25:01.227Z,98472.50
2023-11-11T17:28:04.252Z,98455.19
2023-11-11T17:31:08.510Z,98457.16
2023-11-11T17:34:11.699Z,98457.34
2023-11-11T17:37:14.927Z,98464.50
2023-11-11T17:40:18.117Z,98465.19
2023-11-11T17:43:20.950Z,98461.81
2023-11-11T17:46:25.316Z,98457.66
2023-11-11T17:49:28.169Z,98446.19
2023-11-11T17:52:31.716Z,98456.50
2023-11-11T17:55:35.382Z,98450.66
2023-11-11T17:58:38.284Z,98450.81
2023-11-11T18:01:42.671Z,98437.50
2023-11-11T18:04:45.654Z,98440.50
2023-11-11T18:07:48.607Z,98435.66
2023-11-11T18:10:51.620Z,98419.66
2023-11-11T18:14:04.461Z,98419.66
2023-11-11T18:17:08.817Z,98406.84
2023-11-11T18:20:12.220Z,98402.53
2023-11-11T18:23:15.129Z,98404.19
2023-11-11T18:26:18.182Z,98394.19
2023-11-11T18:29:29.897Z,98387.84
2023-11-11T18:32:39.316Z,98377.34
2023-11-11T18:35:43.499Z,98382.19
2023-11-11T18:38:46.571Z,98385.69
2023-11-11T18:41:52.822Z,98377.31
2023-11-11T18:44:57.446Z,98368.75
2023-11-11T18:48:01.947Z,98377.47
2023-11-11T18:51:05.458Z,98379.31
2023-11-11T18:54:08.390Z,98370.31
2023-11-11T18:57:12.941Z,98370.81
2023-11-11T19:00:16.406Z,98361.47
2023-11-11T19:03:20.663Z,98362.63
2023-11-11T19:06:25.820Z,98360.13
2023-11-11T19:09:28.779Z,98341.63
2023-11-11T19:12:32.106Z,98341.28
2023-11-11T19:15:34.961Z,98340.78
2023-11-11T19:18:39.247Z,98342.59
2023-11-11T19:21:43.098Z,98318.91
2023-11-11T19:24:46.422Z,98309.44
2023-11-11T19:27:54.487Z,98300.78
2023-11-11T19:30:57.426Z,98300.28
2023-11-11T19:34:01.818Z,98283.97
2023-11-11T19:37:04.920Z,98288.03
2023-11-11T19:40:10.169Z,98283.03
2023-11-11T19:43:13.105Z,98268.22
2023-11-11T19:46:16.324Z,98265.75
2023-11-11T19:49:20.642Z,98269.09
2023-11-11T19:52:23.541Z,98266.59
2023-11-11T19:55:26.417Z,98274.09
2023-11-11T19:58:29.320Z,98274.31
2023-11-11T20:01:32.278Z,98273.34
2023-11-11T20:04:36.633Z,98264.69
2023-11-11T20:07:40.743Z,98249.88
2023-11-11T20:10:43.802Z,98238.72
2023-11-11T20:13:47.616Z,98222.47
2023-11-11T20:16:50.639Z,98209.47
2023-11-11T20:19:55.399Z,98207.81
2023-11-11T20:22:58.331Z,98190.69
2023-11-11T20:26:01.265Z,98169.56
2023-11-11T20:29:05.305Z,98163.75
2023-11-11T20:32:09.385Z,98158.59
2023-11-11T20:35:15.754Z,98165.75
2023-11-11T20:38:18.710Z,98158.59
2023-11-11T20:41:21.562Z,98159.78
2023-11-11T20:44:24.726Z,98154.28
2023-11-11T20:47:27.939Z,98150.63
2023-11-11T20:50:32.237Z,98153.13
2023-11-11T20:53:35.158Z,98157.66
2023-11-11T20:56:39.857Z,98139.03
2023-11-11T20:59:42.739Z,98137.00
2023-11-11T21:02:46.181Z,98125.72
2023-11-11T21:05:50.588Z,98124.06
2023-11-11T21:08:55.444Z,98128.06
2023-11-11T21:11:58.671Z,98133.22
2023-11-11T21:15:02.263Z,98117.75
2023-11-11T21:18:05.621Z,98122.50
2023-11-11T21:21:10.998Z,98110.50
2023-11-11T21:24:16.146Z,98100.63
2023-11-11T21:27:19.674Z,98091.31
2023-11-11T21:30:22.492Z,98088.56
2023-11-11T21:33:25.451Z,98080.06
2023-11-11T21:36:30.974Z,98082.06
2023-11-11T21:39:33.783Z,98069.22
2023-11-11T21:42:37.156Z,98066.84
2023-11-11T21:45:41.648Z,98060.31
2023-11-11T21:48:45.433Z,98072.94
2023-11-11T21:51:50.337Z,98071.91
2023-11-11T21:54:53.447Z,98070.72
2023-11-11T21:57:59.242Z,98086.81
2023-11-11T22:01:02.443Z,98074.16
2023-11-11T22:04:05.578Z,98072.13
2023-11-11T22:07:09.874Z,98067.44
2023-11-11T22:10:13.177Z,98052.28
2023-11-11T22:13:16.019Z,98043.41
2023-11-11T22:16:18.957Z,98037.16
2023-11-11T22:19:21.996Z,98031.47
2023-11-11T22:22:26.237Z,98018.97
2023-11-11T22:25:29.116Z,98014.16
2023-11-11T22:28:31.932Z,98002.41
2023-11-11T22:31:34.912Z,97991.75
2023-11-11T22:34:37.937Z,97964.50
2023-11-11T22:37:42.312Z,97950.34
2023-11-11T22:40:45.255Z,97941.31
2023-11-11T22:43:51.460Z,97936.66
2023-11-11T22:46:57.512Z,97901.88
2023-11-11T22:50:00.528Z,97879.94
2023-11-11T22:53:06.817Z,97884.00
2023-11-11T22:56:09.757Z,97833.38
2023-11-11T22:59:13.017Z,97818.00
2023-11-11T23:02:15.999Z,97789.47
2023-11-11T23:05:19.123Z,97800.78
2023-11-11T23:08:24.375Z,97785.38
2023-11-11T23:11:29.962Z,97777.09
2023-11-11T23:14:32.930Z,97751.19
2023-11-11T23:17:35.908Z,97745.41
2023-11-11T23:20:41.438Z,97769.44
2023-11-11T23:23:45.837Z,97748.84
2023-11-11T23:26:49.095Z,97744.25
2023-11-11T23:29:52.040Z,97723.28
2023-11-11T23:32:55.020Z,97744.63
2023-11-11T23:35:58.177Z,97714.59
2023-11-11T23:39:02.397Z,97683.16
2023-11-11T23:42:07.487Z,97675.91
2023-11-11T23:45:11.251Z,97665.56
2023-11-11T23:48:19.229Z,97661.78
2023-11-11T23:51:22.429Z,97649.31
2023-11-11T23:54:27.190Z,97647.66
2023-11-11T23:57:30.134Z,97645.56
